Flight Track Log - Related Links

Times and Time Zones

All times are in EDT time to prevent confusion due to time zone crossing. See the UAL4553 flight status page for this flight to view local times or setup timezone preferences in your user account.

Time Position Orientation Groundspeed Altitude Reporting Facility
EDT Latitude Longitude Course Direction KTS MPH feet Rate Location/Type
Tue 20:09:14 29.9661 -95.3456 90° East 141 162 700  Level Houston Center
Tue 20:10:28 29.9556 -95.2767 100° East 219 252 2,900 1,442 Climbing Houston Center
Tue 20:11:23 29.9519 -95.2192 94° East 227 261 3,800 1,655 Climbing Houston Center
Tue 20:12:00 29.9834 -94.8983 90° East  Level FlightAware Approximate
Tue 20:12:24 29.9444 -95.1353 96° East 258 297 6,100  Level Houston Center
Tue 20:13:00 29.9834 -94.7895 90° East  Level FlightAware Approximate
Tue 20:13:26 29.9483 -95.0297 88° East 273 314 9,200  Level Houston Center
Tue 20:14:00 29.9833 -94.6807 90° East  Level FlightAware Approximate
Tue 20:14:28 29.9544 -94.9364 86° East 288 331 10,900  Level Houston Center
Tue 20:15:29 29.9617 -94.8261 86° East 338 389 12,000 1,268 Climbing Houston Center
Tue 20:16:31 29.9697 -94.7106 85° East 359 413 13,500 1,452 Climbing Houston Center
Tue 20:17:33 29.9781 -94.5900 85° East 373 429 15,000 1,463 Climbing Houston Center
Tue 20:18:34 29.9867 -94.4611 86° East 382 440 16,500 976 Climbing Houston Center
Tue 20:19:36 29.9950 -94.3328 86° East 400 460 17,000 242 Climbing Houston Center
Tue 20:20:38 30.0097 -94.1969 83° East 426 490 17,000  Level Houston Center
Tue 20:21:39 30.0272 -94.0606 82° East 432 497 17,000  Level Houston Center
Tue 20:22:41 30.0472 -93.9000 82° East 425 489 17,000  Level Houston Center
Tue 20:23:43 30.0625 -93.7675 82° East 420 483 17,000  Level Houston Center
Tue 20:24:44 30.0781 -93.6372 82° East 415 478 17,000  Level Houston Center
Tue 20:25:46 30.0931 -93.5064 82° East 417 480 17,000  Level Houston Center
Tue 20:26:47 30.1083 -93.3772 82° East 414 476 17,000  Level Houston Center
Tue 20:27:49 30.1239 -93.2472 82° East 415 478 17,000  Level Houston Center
Tue 20:28:51 30.1414 -93.0922 83° East 409 471 17,000  Level Houston Center
Tue 20:29:52 30.1483 -92.9639 86° East 405 466 17,000 -829 Level Houston Center
Tue 20:30:54 30.1542 -92.8372 87° East 398 458 15,300 -1,790 Descending Houston Center
Tue 20:31:56 30.1608 -92.7114 86° East 393 452 13,300 -1,854 Descending Houston Center
Tue 20:32:57 30.1661 -92.5919 87° East 377 434 11,500 -1,171 Descending Houston Center
Tue 20:33:59 30.1731 -92.4831 86° East 348 400 10,900 -1,122 Descending Houston Center
Tue 20:35:00 30.1786 -92.3683 87° East 308 354 9,200 -1,659 Descending Houston Center
Tue 20:36:02 30.1700 -92.2822 97° East 280 322 7,500 -1,951 Descending Houston Center
Tue 20:37:03 30.1558 -92.2003 101° East 264 304 5,200 -2,262 Descending Houston Center

Login

Don't have an account? Register now (free) for customized features, flight alerts, and more!